createdAt,value
2023-04-03T00:01:12.129Z,60.63
2023-04-03T00:03:39.468Z,61.20
2023-04-03T00:06:08.122Z,60.49
2023-04-03T00:08:36.151Z,60.90
2023-04-03T00:11:04.258Z,60.21
2023-04-03T00:13:32.389Z,60.07
2023-04-03T00:15:59.488Z,59.85
2023-04-03T00:18:26.715Z,60.86
2023-04-03T00:20:53.761Z,60.80
2023-04-03T00:23:20.811Z,60.44
2023-04-03T00:25:48.060Z,60.92
2023-04-03T00:28:14.993Z,59.78
2023-04-03T00:30:42.164Z,60.51
2023-04-03T00:33:13.946Z,60.42
2023-04-03T00:35:41.628Z,61.07
2023-04-03T00:38:09.973Z,60.59
2023-04-03T00:40:42.726Z,61.25
2023-04-03T00:43:23.097Z,61.58
2023-04-03T00:45:53.624Z,61.88
2023-04-03T00:48:40.440Z,60.73
2023-04-03T00:51:12.661Z,61.07
2023-04-03T00:53:46.175Z,62.03
2023-04-03T00:56:18.495Z,62.18
2023-04-03T00:58:57.386Z,61.88
2023-04-03T01:01:28.915Z,62.07
2023-04-03T01:03:56.927Z,61.79
2023-04-03T01:06:33.003Z,62.33
2023-04-03T01:09:06.164Z,61.85
2023-04-03T01:11:33.398Z,62.19
2023-04-03T01:14:02.907Z,63.08
2023-04-03T01:16:32.815Z,62.83
2023-04-03T01:19:01.813Z,62.33
2023-04-03T01:21:52.444Z,63.48
2023-04-03T01:24:40.209Z,62.47
2023-04-03T01:27:13.201Z,62.19
2023-04-03T01:29:41.613Z,63.06
2023-04-03T01:32:09.091Z,63.30
2023-04-03T01:34:36.099Z,63.53
2023-04-03T01:37:03.414Z,63.14
2023-04-03T01:39:30.578Z,62.87
2023-04-03T01:41:57.676Z,63.47
2023-04-03T01:44:30.682Z,63.15
2023-04-03T01:46:57.978Z,63.27
2023-04-03T01:49:27.408Z,62.89
2023-04-03T01:51:55.710Z,63.35
2023-04-03T01:54:23.037Z,63.89
2023-04-03T01:56:50.189Z,63.56
2023-04-03T01:59:20.174Z,65.04
2023-04-03T02:01:47.769Z,64.35
2023-04-03T02:04:15.215Z,63.35
2023-04-03T02:06:42.390Z,63.64
2023-04-03T02:09:09.940Z,63.90
2023-04-03T02:11:37.221Z,64.05
2023-04-03T02:14:04.679Z,63.89
2023-04-03T02:16:32.087Z,64.36
2023-04-03T02:18:59.111Z,64.16
2023-04-03T02:21:26.213Z,64.48
2023-04-03T02:23:54.594Z,63.75
2023-04-03T02:26:22.085Z,63.54
2023-04-03T02:28:49.191Z,64.04
2023-04-03T02:31:16.601Z,64.10
2023-04-03T02:33:45.651Z,63.50
2023-04-03T02:36:15.296Z,63.99
2023-04-03T02:38:45.336Z,64.29
2023-04-03T02:41:13.501Z,63.53
2023-04-03T02:43:41.284Z,63.83
2023-04-03T02:46:08.941Z,64.29
2023-04-03T02:48:37.844Z,64.65
2023-04-03T02:51:05.281Z,64.51
2023-04-03T02:53:33.165Z,64.76
2023-04-03T02:56:06.512Z,64.76
2023-04-03T02:58:33.714Z,64.94
2023-04-03T03:01:03.199Z,64.73
2023-04-03T03:03:30.450Z,64.91
2023-04-03T03:06:13.314Z,64.82
2023-04-03T03:08:41.595Z,64.74
2023-04-03T03:11:09.174Z,65.03
2023-04-03T03:13:36.941Z,64.89
2023-04-03T03:16:04.551Z,64.56
2023-04-03T03:18:31.790Z,65.00
2023-04-03T03:21:01.664Z,65.11
2023-04-03T03:23:31.618Z,64.62
2023-04-03T03:26:01.803Z,64.53
2023-04-03T03:28:29.888Z,64.21
2023-04-03T03:30:58.909Z,64.65
2023-04-03T03:33:27.363Z,64.34
2023-04-03T03:35:55.745Z,64.41
2023-04-03T03:38:23.910Z,65.20
2023-04-03T03:40:52.397Z,64.55
2023-04-03T03:43:21.348Z,64.58
2023-04-03T03:45:54.354Z,64.32
2023-04-03T03:48:23.920Z,65.40
2023-04-03T03:50:51.563Z,65.04
2023-04-03T03:53:21.431Z,65.49
2023-04-03T03:55:51.575Z,65.77
2023-04-03T03:58:21.219Z,65.19
2023-04-03T04:00:48.232Z,65.52
2023-04-03T04:03:15.484Z,66.04
2023-04-03T04:05:46.237Z,65.60
2023-04-03T04:08:13.768Z,66.04
2023-04-03T04:10:41.095Z,65.82
2023-04-03T04:13:08.778Z,65.23
2023-04-03T04:15:36.352Z,65.01
2023-04-03T04:18:04.716Z,65.36
2023-04-03T04:20:33.252Z,65.05
2023-04-03T04:23:00.817Z,65.33
2023-04-03T04:25:30.468Z,65.36
2023-04-03T04:27:57.683Z,64.96
2023-04-03T04:30:24.647Z,65.09
2023-04-03T04:32:53.440Z,65.37
2023-04-03T04:35:21.035Z,65.90
2023-04-03T04:37:50.960Z,65.16
2023-04-03T04:40:18.939Z,65.08
2023-04-03T04:42:46.537Z,65.12
2023-04-03T04:45:13.909Z,65.32
2023-04-03T04:47:43.563Z,65.49
2023-04-03T04:50:11.751Z,65.17
2023-04-03T04:52:39.715Z,65.68
2023-04-03T04:55:08.978Z,65.94
2023-04-03T04:57:36.706Z,65.39
2023-04-03T05:00:06.528Z,66.08
2023-04-03T05:02:34.549Z,66.26
2023-04-03T05:05:04.426Z,66.50
2023-04-03T05:07:32.911Z,66.84
2023-04-03T05:10:00.808Z,67.33
2023-04-03T05:12:28.856Z,66.78
2023-04-03T05:14:59.866Z,67.16
2023-04-03T05:17:28.275Z,67.17
2023-04-03T05:19:57.186Z,67.00
2023-04-03T05:22:25.554Z,67.41
2023-04-03T05:24:55.899Z,67.04
2023-04-03T05:27:29.159Z,66.68
2023-04-03T05:29:58.749Z,66.64
2023-04-03T05:32:28.662Z,66.73
2023-04-03T05:35:22.335Z,67.31
2023-04-03T05:37:52.745Z,66.70
2023-04-03T05:40:20.193Z,66.65
2023-04-03T05:42:51.937Z,67.32
2023-04-03T05:45:20.631Z,67.46
2023-04-03T05:47:48.430Z,67.78
2023-04-03T05:50:16.414Z,67.67
2023-04-03T05:52:49.430Z,67.89
2023-04-03T05:55:18.015Z,67.90
2023-04-03T05:57:45.448Z,68.42
2023-04-03T06:00:17.412Z,68.31
2023-04-03T06:02:54.424Z,68.69
2023-04-03T06:05:24.819Z,68.80
2023-04-03T06:07:51.984Z,68.94
2023-04-03T06:10:19.352Z,69.19
2023-04-03T06:12:46.911Z,69.37
2023-04-03T06:15:14.604Z,69.53
2023-04-03T06:17:42.024Z,69.49
2023-04-03T06:20:10.574Z,70.12
2023-04-03T06:22:37.974Z,70.17
2023-04-03T06:25:07.420Z,70.38
2023-04-03T06:27:34.697Z,70.66
2023-04-03T06:30:02.111Z,70.85
2023-04-03T06:32:29.883Z,71.38
2023-04-03T06:34:58.205Z,71.38
2023-04-03T06:37:29.816Z,71.69
2023-04-03T06:39:57.039Z,72.10
2023-04-03T06:42:25.163Z,71.39
2023-04-03T06:45:22.742Z,71.90
2023-04-03T06:47:49.857Z,71.81
2023-04-03T06:50:17.072Z,71.32
2023-04-03T06:52:44.321Z,72.20
2023-04-03T06:55:13.520Z,71.80
2023-04-03T06:57:40.788Z,72.08
2023-04-03T07:00:10.197Z,72.01
2023-04-03T07:02:37.622Z,72.42
2023-04-03T07:05:05.660Z,72.56
2023-04-03T07:07:34.143Z,72.43
2023-04-03T07:10:02.670Z,72.52
2023-04-03T07:12:29.733Z,72.57
2023-04-03T07:14:56.845Z,72.85
2023-04-03T07:17:23.925Z,72.83
2023-04-03T07:19:51.021Z,72.08
2023-04-03T07:22:18.879Z,72.83
2023-04-03T07:24:47.334Z,73.48
2023-04-03T07:27:14.549Z,73.62
2023-04-03T07:29:41.773Z,73.03
2023-04-03T07:32:09.171Z,73.12
2023-04-03T07:34:37.106Z,72.70
2023-04-03T07:37:04.373Z,72.54
2023-04-03T07:39:31.500Z,72.95
2023-04-03T07:41:58.688Z,72.01
2023-04-03T07:44:26.346Z,72.20
2023-04-03T07:46:53.437Z,71.48
2023-04-03T07:49:21.247Z,71.18
2023-04-03T07:51:49.600Z,71.99
2023-04-03T07:54:17.382Z,70.89
2023-04-03T07:56:44.872Z,70.67
2023-04-03T07:59:12.545Z,71.00
2023-04-03T08:01:39.845Z,70.63
2023-04-03T08:04:07.848Z,69.62
2023-04-03T08:06:46.015Z,69.73
2023-04-03T08:09:17.818Z,69.98
2023-04-03T08:11:45.622Z,68.98
2023-04-03T08:14:17.674Z,69.46
2023-04-03T08:16:47.596Z,69.70
2023-04-03T08:19:26.002Z,68.67
2023-04-03T08:21:56.671Z,69.14
2023-04-03T08:24:23.741Z,69.18
2023-04-03T08:26:50.724Z,68.87
2023-04-03T08:29:17.927Z,69.44
2023-04-03T08:31:45.840Z,68.88
2023-04-03T08:34:14.187Z,68.40
2023-04-03T08:36:41.215Z,68.73
2023-04-03T08:39:08.856Z,67.97
2023-04-03T08:41:40.765Z,68.06
2023-04-03T08:44:40.209Z,67.51
2023-04-03T08:47:27.082Z,68.01
2023-04-03T08:50:01.794Z,66.93
2023-04-03T08:52:44.049Z,67.15
2023-04-03T08:55:28.864Z,67.00
2023-04-03T08:58:04.639Z,67.01
2023-04-03T09:00:46.772Z,66.93
2023-04-03T09:03:18.855Z,66.44
2023-04-03T09:05:57.000Z,66.50
2023-04-03T09:09:11.925Z,66.24
2023-04-03T09:12:06.153Z,65.29
2023-04-03T09:15:03.479Z,64.32
2023-04-03T09:17:52.714Z,63.87
2023-04-03T09:20:56.073Z,64.11
2023-04-03T09:23:52.990Z,64.29
2023-04-03T09:26:27.326Z,63.36
2023-04-03T09:29:00.187Z,63.50
2023-04-03T09:31:43.937Z,63.61
2023-04-03T09:34:22.566Z,63.48
2023-04-03T09:36:54.062Z,63.21
2023-04-03T09:39:25.279Z,62.71
2023-04-03T09:42:00.623Z,62.42
2023-04-03T09:44:36.428Z,63.03
2023-04-03T09:47:30.454Z,62.02
2023-04-03T09:50:15.710Z,62.34
2023-04-03T09:52:45.775Z,62.14
2023-04-03T09:55:31.023Z,61.69
2023-04-03T09:58:03.080Z,61.63
2023-04-03T10:00:40.399Z,61.19
2023-04-03T10:03:27.755Z,60.78
2023-04-03T10:05:56.354Z,60.86
2023-04-03T10:08:28.894Z,60.56
2023-04-03T10:11:19.814Z,60.07
2023-04-03T10:13:57.627Z,59.93
2023-04-03T10:16:40.891Z,59.59
2023-04-03T10:19:34.518Z,59.92
2023-04-03T10:22:15.550Z,58.67
2023-04-03T10:24:54.995Z,57.90
2023-04-03T10:27:57.291Z,57.56
2023-04-03T10:30:27.337Z,56.96
2023-04-03T10:33:37.195Z,57.11
2023-04-03T10:36:35.263Z,57.28
2023-04-03T10:39:13.106Z,56.92
2023-04-03T10:42:16.128Z,56.42
2023-04-03T10:45:08.273Z,56.15
2023-04-03T10:48:20.534Z,54.90
2023-04-03T10:51:10.068Z,54.98
2023-04-03T10:53:49.627Z,55.49
2023-04-03T10:56:27.265Z,55.00
2023-04-03T10:59:31.638Z,54.78
2023-04-03T11:02:12.429Z,54.32
2023-04-03T11:04:44.812Z,53.67
2023-04-03T11:07:24.355Z,52.99
2023-04-03T11:09:58.295Z,53.92
2023-04-03T11:12:28.166Z,53.42
2023-04-03T11:14:57.814Z,53.13
2023-04-03T11:17:47.740Z,53.36
2023-04-03T11:20:28.863Z,53.19
2023-04-03T11:23:04.990Z,52.68
2023-04-03T11:25:36.064Z,51.99
2023-04-03T11:28:08.163Z,51.40
2023-04-03T11:31:04.269Z,51.42
2023-04-03T11:33:49.489Z,52.27
2023-04-03T11:36:30.723Z,51.71
2023-04-03T11:39:17.017Z,52.16
2023-04-03T11:41:44.761Z,52.81
2023-04-03T11:44:39.464Z,52.09
2023-04-03T11:47:10.117Z,51.56
2023-04-03T11:50:01.498Z,52.78
2023-04-03T11:52:43.748Z,52.90
2023-04-03T11:55:23.458Z,52.44
2023-04-03T11:57:59.822Z,53.05
2023-04-03T12:00:48.333Z,52.94
2023-04-03T12:03:58.592Z,51.58
2023-04-03T12:06:37.023Z,50.45
2023-04-03T12:09:26.535Z,50.49
2023-04-03T12:11:53.955Z,52.01
2023-04-03T12:14:26.295Z,51.91
2023-04-03T12:16:58.466Z,52.24
2023-04-03T12:22:13.161Z,51.74
2023-04-03T12:24:44.183Z,52.28
2023-04-03T12:27:23.322Z,51.74
2023-04-03T12:30:06.933Z,51.38
2023-04-03T12:33:09.544Z,50.95
2023-04-03T12:36:13.844Z,49.74
2023-04-03T12:38:46.776Z,50.50
2023-04-03T12:41:39.588Z,50.92
2023-04-03T12:44:40.331Z,50.79
2023-04-03T12:47:34.321Z,50.32
2023-04-03T12:50:04.202Z,49.59
2023-04-03T12:52:38.443Z,49.31
2023-04-03T12:55:15.112Z,49.45
2023-04-03T12:57:43.087Z,48.69
2023-04-03T13:00:39.925Z,47.27
2023-04-03T13:03:23.313Z,46.02
2023-04-03T13:05:51.664Z,45.52
2023-04-03T13:08:21.115Z,45.56
2023-04-03T13:11:02.580Z,46.07
2023-04-03T13:13:30.188Z,42.64
2023-04-03T13:15:58.716Z,43.33
2023-04-03T13:18:34.844Z,43.07
2023-04-03T13:21:11.849Z,43.17
2023-04-03T13:23:45.449Z,43.27
2023-04-03T13:26:12.914Z,42.89
2023-04-03T13:28:41.752Z,42.58
2023-04-03T13:31:21.557Z,43.31
2023-04-03T13:33:57.836Z,43.51
2023-04-03T13:36:34.906Z,42.83
2023-04-03T13:39:06.739Z,42.81
2023-04-03T13:41:39.182Z,43.84
2023-04-03T13:44:35.874Z,42.64
2023-04-03T13:47:24.535Z,42.70
2023-04-03T13:50:17.053Z,42.43
2023-04-03T13:53:03.413Z,42.40
2023-04-03T13:55:37.768Z,42.63
2023-04-03T13:58:10.997Z,41.61
2023-04-03T14:00:51.590Z,41.14
2023-04-03T14:03:53.142Z,41.83
2023-04-03T14:06:20.400Z,41.93
2023-04-03T14:08:50.169Z,41.16
2023-04-03T14:11:26.054Z,41.10
2023-04-03T14:13:53.405Z,40.39
2023-04-03T14:16:28.747Z,40.19
2023-04-03T14:18:55.887Z,40.49
2023-04-03T14:21:23.505Z,39.62
2023-04-03T14:23:51.948Z,40.23
2023-04-03T14:26:24.959Z,39.78
2023-04-03T14:28:55.552Z,39.56
2023-04-03T14:31:24.000Z,39.89
2023-04-03T14:33:51.586Z,39.85
2023-04-03T14:36:26.425Z,39.95
2023-04-03T14:38:55.008Z,40.13
2023-04-03T14:41:25.079Z,40.09
2023-04-03T14:43:53.023Z,40.28
2023-04-03T14:46:43.032Z,39.89
2023-04-03T14:49:21.623Z,40.01
2023-04-03T14:51:49.307Z,39.69
2023-04-03T14:54:22.599Z,40.19
2023-04-03T14:56:49.751Z,39.61
2023-04-03T14:59:18.614Z,39.50
2023-04-03T15:01:45.940Z,39.66
2023-04-03T15:04:20.507Z,39.78
2023-04-03T15:06:50.119Z,39.11
2023-04-03T15:09:28.134Z,39.06
2023-04-03T15:11:56.156Z,39.43
2023-04-03T15:14:35.537Z,39.85
2023-04-03T15:17:17.833Z,40.19
2023-04-03T15:19:45.509Z,40.44
2023-04-03T15:22:18.701Z,40.49
2023-04-03T15:24:46.843Z,40.52
2023-04-03T15:27:14.945Z,40.68
2023-04-03T15:29:43.942Z,40.37
2023-04-03T15:32:13.279Z,40.79
2023-04-03T15:34:42.284Z,41.16
2023-04-03T15:37:09.571Z,40.95
2023-04-03T15:39:36.645Z,40.85
2023-04-03T15:42:10.267Z,40.28
2023-04-03T15:44:37.560Z,40.38
2023-04-03T15:47:05.012Z,39.72
2023-04-03T15:49:36.379Z,39.85
2023-04-03T15:52:07.636Z,40.58
2023-04-03T15:54:34.831Z,39.91
2023-04-03T15:57:02.332Z,39.38
2023-04-03T15:59:31.610Z,39.75
2023-04-03T16:02:01.863Z,39.46
2023-04-03T16:04:29.173Z,39.63
2023-04-03T16:06:56.372Z,38.96
2023-04-03T16:09:23.562Z,39.71
2023-04-03T16:11:51.216Z,39.81
2023-04-03T16:14:18.459Z,39.68
2023-04-03T16:16:45.574Z,39.71
2023-04-03T16:19:13.725Z,39.50
2023-04-03T16:21:40.968Z,39.58
2023-04-03T16:24:08.281Z,39.65
2023-04-03T16:26:35.700Z,40.28
2023-04-03T16:29:03.472Z,40.62
2023-04-03T16:31:33.227Z,39.79
2023-04-03T16:34:01.914Z,40.48
2023-04-03T16:36:29.216Z,40.49
2023-04-03T16:38:56.377Z,41.04
2023-04-03T16:41:23.422Z,40.75
2023-04-03T16:43:51.561Z,40.80
2023-04-03T16:46:18.624Z,40.43
2023-04-03T16:48:45.583Z,41.08
2023-04-03T16:51:14.260Z,40.63
2023-04-03T16:53:41.296Z,40.45
2023-04-03T16:56:08.476Z,40.70
2023-04-03T16:58:35.972Z,40.82
2023-04-03T17:01:16.065Z,40.63
2023-04-03T17:03:46.379Z,41.15
2023-04-03T17:06:19.545Z,40.96
2023-04-03T17:08:49.759Z,41.38
2023-04-03T17:11:29.996Z,41.32
2023-04-03T17:13:57.047Z,41.14
2023-04-03T17:16:25.785Z,41.21
2023-04-03T17:18:54.200Z,41.25
2023-04-03T17:21:21.841Z,41.18
2023-04-03T17:23:58.357Z,40.97
2023-04-03T17:26:27.210Z,41.11
2023-04-03T17:28:54.665Z,41.17
2023-04-03T17:31:22.708Z,41.70
2023-04-03T17:33:49.718Z,41.47
2023-04-03T17:36:17.060Z,41.20
2023-04-03T17:38:44.354Z,41.44
2023-04-03T17:41:11.688Z,41.74
2023-04-03T17:43:38.764Z,41.48
2023-04-03T17:46:09.945Z,41.21
2023-04-03T17:48:41.642Z,41.66
2023-04-03T17:51:15.485Z,41.87
2023-04-03T17:53:44.431Z,41.78
2023-04-03T17:56:17.968Z,41.87
2023-04-03T17:58:47.191Z,41.30
2023-04-03T18:01:22.189Z,41.01
2023-04-03T18:03:52.553Z,41.05
2023-04-03T18:06:22.590Z,40.66
2023-04-03T18:09:01.811Z,41.51
2023-04-03T18:11:30.578Z,40.75
2023-04-03T18:14:02.371Z,41.05
2023-04-03T18:16:30.459Z,41.23
2023-04-03T18:19:06.982Z,41.41
2023-04-03T18:21:46.085Z,40.80
2023-04-03T18:24:16.652Z,41.15
2023-04-03T18:26:46.700Z,40.62
2023-04-03T18:29:14.525Z,40.90
2023-04-03T18:31:46.768Z,41.14
2023-04-03T18:34:13.833Z,40.91
2023-04-03T18:36:41.112Z,40.51
2023-04-03T18:39:08.313Z,41.58
2023-04-03T18:41:37.942Z,41.44
2023-04-03T18:44:12.737Z,40.90
2023-04-03T18:46:39.970Z,40.78
2023-04-03T18:49:08.586Z,41.50
2023-04-03T18:51:35.943Z,40.84
2023-04-03T18:54:04.143Z,41.71
2023-04-03T18:56:32.472Z,41.33
2023-04-03T18:58:59.458Z,41.66
2023-04-03T19:01:27.223Z,41.32
2023-04-03T19:03:54.413Z,40.83
2023-04-03T19:06:21.411Z,41.43
2023-04-03T19:08:51.069Z,41.17
2023-04-03T19:11:18.261Z,41.54
2023-04-03T19:14:04.388Z,41.49
2023-04-03T19:16:34.874Z,41.03
2023-04-03T19:19:01.913Z,41.45
2023-04-03T19:21:29.482Z,41.86
2023-04-03T19:23:59.382Z,41.41
2023-04-03T19:26:27.441Z,41.68
2023-04-03T19:28:54.633Z,41.90
2023-04-03T19:31:23.355Z,41.69
2023-04-03T19:33:50.990Z,40.92
2023-04-03T19:36:19.030Z,41.52
2023-04-03T19:38:46.458Z,41.42
2023-04-03T19:41:17.910Z,41.00
2023-04-03T19:43:46.576Z,41.07
2023-04-03T19:46:13.727Z,41.41
2023-04-03T19:48:40.864Z,41.47
2023-04-03T19:51:08.909Z,41.52
2023-04-03T19:53:39.439Z,41.22
2023-04-03T19:56:06.592Z,41.16
2023-04-03T19:58:33.830Z,41.00
2023-04-03T20:01:01.441Z,41.47
2023-04-03T20:03:28.633Z,40.81
2023-04-03T20:05:57.655Z,40.65
2023-04-03T20:08:26.302Z,40.86
2023-04-03T20:10:53.250Z,41.22
2023-04-03T20:13:21.729Z,41.01
2023-04-03T20:15:48.784Z,41.79
2023-04-03T20:18:20.961Z,41.24
2023-04-03T20:21:07.530Z,40.66
2023-04-03T20:23:37.203Z,41.12
2023-04-03T20:26:11.572Z,40.66
2023-04-03T20:28:42.818Z,41.69
2023-04-03T20:31:11.957Z,41.17
2023-04-03T20:33:40.307Z,40.92
2023-04-03T20:36:07.776Z,40.45
2023-04-03T20:38:34.924Z,41.03
2023-04-03T20:41:02.015Z,41.80
2023-04-03T20:43:29.455Z,41.37
2023-04-03T20:45:59.840Z,41.64
2023-04-03T20:48:26.953Z,41.82
2023-04-03T20:50:53.978Z,42.36
2023-04-03T20:53:21.317Z,41.12
2023-04-03T20:56:01.044Z,42.42
2023-04-03T20:58:31.108Z,42.30
2023-04-03T21:00:59.000Z,42.49
2023-04-03T21:03:30.397Z,41.83
2023-04-03T21:06:00.589Z,41.54
2023-04-03T21:09:24.201Z,41.97
2023-04-03T21:12:47.545Z,42.04
2023-04-03T21:16:00.024Z,42.31
2023-04-03T21:18:50.806Z,42.57
2023-04-03T21:21:26.075Z,42.44
2023-04-03T21:23:55.101Z,42.15
2023-04-03T21:26:23.927Z,42.44
2023-04-03T21:28:52.358Z,42.32
2023-04-03T21:31:21.992Z,42.47
2023-04-03T21:33:49.997Z,42.32
2023-04-03T21:36:17.523Z,42.84
2023-04-03T21:38:46.097Z,42.89
2023-04-03T21:41:13.139Z,42.45
2023-04-03T21:43:40.169Z,42.36
2023-04-03T21:46:07.272Z,42.58
2023-04-03T21:48:36.211Z,42.72
2023-04-03T21:51:07.015Z,43.06
2023-04-03T21:53:34.502Z,43.15
2023-04-03T21:56:02.927Z,42.91
2023-04-03T21:58:32.184Z,43.32
2023-04-03T22:01:14.730Z,43.45
2023-04-03T22:03:44.538Z,43.37
2023-04-03T22:06:17.034Z,43.44
2023-04-03T22:08:46.025Z,44.25
2023-04-03T22:11:16.997Z,43.85
2023-04-03T22:13:44.794Z,43.59
2023-04-03T22:16:12.959Z,43.24
2023-04-03T22:18:40.383Z,44.55
2023-04-03T22:21:10.675Z,43.48
2023-04-03T22:23:38.085Z,44.31
2023-04-03T22:26:08.560Z,44.44
2023-04-03T22:28:39.781Z,44.45
2023-04-03T22:31:08.004Z,44.56
2023-04-03T22:33:39.006Z,45.03
2023-04-03T22:36:09.055Z,45.25
2023-04-03T22:38:37.440Z,44.76
2023-04-03T22:41:08.200Z,45.52
2023-04-03T22:43:37.517Z,45.75
2023-04-03T22:46:08.810Z,45.27
2023-04-03T22:48:37.511Z,45.09
2023-04-03T22:51:08.972Z,45.97
2023-04-03T22:53:36.744Z,45.82
2023-04-03T22:56:11.087Z,45.68
2023-04-03T22:58:39.580Z,45.67
2023-04-03T23:01:12.217Z,45.93
2023-04-03T23:03:41.742Z,45.44
2023-04-03T23:06:11.213Z,45.81
2023-04-03T23:08:39.239Z,45.90
2023-04-03T23:11:08.234Z,45.44
2023-04-03T23:13:36.419Z,45.94
2023-04-03T23:16:05.081Z,46.33
2023-04-03T23:18:33.160Z,46.09
2023-04-03T23:21:04.168Z,45.97
2023-04-03T23:23:32.270Z,45.99
2023-04-03T23:26:01.847Z,46.81
2023-04-03T23:28:30.590Z,46.33
2023-04-03T23:31:03.372Z,46.25
2023-04-03T23:33:32.238Z,46.32
2023-04-03T23:36:06.792Z,46.76
2023-04-03T23:38:35.430Z,47.16
2023-04-03T23:41:02.846Z,47.25
2023-04-03T23:43:31.381Z,47.82
2023-04-03T23:45:58.768Z,46.73
2023-04-03T23:48:26.126Z,46.66
2023-04-03T23:50:53.705Z,47.83
2023-04-03T23:53:21.096Z,47.31
2023-04-03T23:55:48.787Z,46.96
2023-04-03T23:58:16.167Z,47.11
